ADDS METAR Data INFO
IDs: Format: Raw Decoded Include TAF

Data at: 1840 UTC 17 Oct 2017

K6I2 171835Z AUTO 00000KT 5SM HZ CLR 17/04 A3032 RMK AO2
K6I2 171815Z AUTO 00000KT 5SM HZ CLR 17/03 A3033 RMK AO2
K6I2 171755Z AUTO 00000KT 10SM CLR 17/03 A3034 RMK AO2
K6I2 171735Z AUTO 00000KT 10SM CLR 17/03 A3035 RMK AO2
K6I2 171715Z AUTO 17006KT 10SM CLR 16/03 A3037 RMK AO2
K6I2 171655Z AUTO 16005KT 10SM CLR 16/04 A3038 RMK AO2
K6I2 171635Z AUTO 17004KT 10SM CLR 15/04 A3039 RMK AO2
K6I2 171615Z AUTO 00000KT 10SM CLR 15/04 A3039 RMK AO2
K6I2 171555Z AUTO 00000KT 10SM CLR 15/04 A3040 RMK AO2
K6I2 171535Z AUTO 00000KT 10SM CLR 15/05 A3040 RMK AO2
K6I2 171515Z AUTO 00000KT 10SM CLR 14/05 A3040 RMK AO2
K6I2 171455Z AUTO 00000KT 10SM CLR 13/07 A3041 RMK AO2
K6I2 171435Z AUTO 00000KT 10SM CLR 12/08 A3041 RMK AO2
K6I2 171415Z AUTO 00000KT 10SM CLR 10/07 A3041 RMK AO2
K6I2 171355Z AUTO 00000KT 10SM CLR 10/07 A3041 RMK AO2
K6I2 171335Z AUTO 00000KT 9SM CLR 09/06 A3040 RMK AO2
K6I2 171315Z AUTO 00000KT 10SM CLR 07/05 A3039 RMK AO2
K6I2 171255Z AUTO 00000KT 10SM CLR 06/05 A3039 RMK AO2 P0005
K6I2 171235Z AUTO 00000KT 10SM CLR 04/04 A3038 RMK AO2 P0004
K6I2 171215Z AUTO 00000KT 7SM CLR 04/03 A3038 RMK AO2 P0001
K6I2 171155Z AUTO 00000KT 8SM CLR 03/03 A3037 RMK AO2 P0002
K6I2 171135Z AUTO 00000KT 7SM CLR 03/03 A3037 RMK AO2
K6I2 171115Z AUTO 00000KT 8SM CLR 03/03 A3037 RMK AO2
K6I2 171055Z AUTO 00000KT 10SM CLR 04/03 A3036 RMK AO2 P0016
K6I2 171035Z AUTO 00000KT 10SM CLR 04/04 A3035 RMK AO2 P0013
K6I2 171010Z AUTO 00000KT 10SM CLR 04/04 A3035 RMK AO2 P0001
K6I2 170955Z AUTO 00000KT 9SM CLR 04/03 A3035 RMK AO2 P0006
K6I2 170935Z AUTO 00000KT 7SM CLR 04/04 A3035 RMK AO2 P0005
K6I2 170915Z AUTO 00000KT 10SM CLR 04/04 A3034 RMK AO2 P0003
K6I2 170855Z AUTO 00000KT 9SM CLR 04/04 A3033 RMK AO2 P0001
K6I2 170835Z AUTO 00000KT 10SM CLR 05/04 A3033 RMK AO2 P0001
K6I2 170815Z AUTO 00000KT 10SM CLR 05/04 A3033 RMK AO2
K6I2 170755Z AUTO 00000KT 10SM CLR 05/04 A3033 RMK AO2 P0002
K6I2 170735Z AUTO 00000KT 10SM CLR 05/04 A3033 RMK AO2
K6I2 170715Z AUTO 00000KT 10SM CLR 05/04 A3033 RMK AO2
K6I2 170655Z AUTO 00000KT 10SM CLR 05/04 A3033 RMK AO2
K6I2 170635Z AUTO 00000KT 10SM CLR 06/04 A3033 RMK AO2
K6I2 170615Z AUTO 00000KT 10SM CLR 05/04 A3033 RMK AO2
K6I2 170555Z AUTO 00000KT 10SM CLR 06/04 A3033 RMK AO2
K6I2 170535Z AUTO 00000KT 10SM CLR 07/04 A3033 RMK AO2
K6I2 170515Z AUTO 00000KT 10SM CLR 06/04 A3033 RMK AO2
K6I2 170455Z AUTO 00000KT 10SM CLR 06/04 A3033 RMK AO2
K6I2 170435Z AUTO 00000KT 10SM CLR 07/04 A3033 RMK AO2
K6I2 170415Z AUTO 00000KT 10SM CLR 08/04 A3033 RMK AO2
K6I2 170355Z AUTO 00000KT 10SM CLR 08/04 A3033 RMK AO2
K6I2 170335Z AUTO 00000KT 10SM CLR 08/04 A3033 RMK AO2
K6I2 170315Z AUTO 00000KT 10SM CLR 09/04 A3033 RMK AO2
K6I2 170255Z AUTO 00000KT 10SM CLR 08/04 A3033 RMK AO2
K6I2 170235Z AUTO 00000KT 10SM CLR 10/04 A3033 RMK AO2
K6I2 170215Z AUTO 00000KT 10SM CLR 09/05 A3032 RMK AO2
K6I2 170155Z AUTO 00000KT 7SM CLR 09/04 A3032 RMK AO2
K6I2 170135Z AUTO 00000KT 5SM HZ CLR 10/04 A3032 RMK AO2
K6I2 170115Z AUTO 00000KT 5SM HZ CLR 10/04 A3032 RMK AO2
K6I2 170055Z AUTO 00000KT 5SM HZ CLR 10/05 A3031 RMK AO2 P0001
K6I2 170035Z AUTO 00000KT 7SM CLR 10/05 A3031 RMK AO2
K6I2 170015Z AUTO 00000KT 10SM CLR 10/05 A3031 RMK AO2
K6I2 162355Z AUTO 00000KT 10SM CLR 10/05 A3030 RMK AO2
K6I2 162335Z AUTO 00000KT 10SM CLR 12/04 A3030 RMK AO2
K6I2 162315Z AUTO 00000KT 10SM CLR 12/05 A3030 RMK AO2
K6I2 162255Z AUTO 00000KT 10SM CLR 13/04 A3029 RMK AO2
K6I2 162235Z AUTO 00000KT 10SM CLR 13/04 A3029 RMK AO2
K6I2 162215Z AUTO 00000KT 10SM FEW050 14/04 A3029 RMK AO2
K6I2 162155Z AUTO 33005KT 10SM CLR 14/04 A3029 RMK AO2
K6I2 162135Z AUTO 36006KT 10SM CLR 15/04 A3028 RMK AO2
K6I2 162115Z AUTO 34007KT 10SM CLR 15/04 A3028 RMK AO2
K6I2 162055Z AUTO 00000KT 10SM FEW050 15/03 A3028 RMK AO2
K6I2 162035Z AUTO 35008KT 10SM SCT050 17/04 A3029 RMK AO2
K6I2 162015Z AUTO 35007KT 10SM CLR 16/04 A3029 RMK AO2
K6I2 161955Z AUTO 33007KT 10SM SCT048 15/04 A3029 RMK AO2
K6I2 161935Z AUTO 34006KT 10SM FEW050 16/04 A3029 RMK AO2
K6I2 161915Z AUTO 33008KT 10SM SCT048 15/05 A3029 RMK AO2
K6I2 161855Z AUTO 34005KT 10SM FEW048 16/03 A3030 RMK AO2
K6I2 161835Z AUTO 35006KT 10SM BKN048 15/04 A3030 RMK AO2
K6I2 161815Z AUTO 34005KT 10SM BKN046 14/03 A3031 RMK AO2
K6I2 161755Z AUTO 01005KT 10SM FEW042 16/05 A3032 RMK AO2
K6I2 161735Z AUTO 35005KT 10SM FEW042 SCT050 15/04 A3033 RMK AO2
K6I2 161715Z AUTO 03007KT 10SM SCT042 BKN050 15/05 A3034 RMK AO2
K6I2 161655Z AUTO 36007KT 330V050 10SM SCT038 SCT049 15/04 A3034 RMK AO2
K6I2 161635Z AUTO 35009KT 10SM SCT038 BKN047 14/05 A3034 RMK AO2
K6I2 161615Z AUTO 35007KT 10SM FEW042 14/05 A3035 RMK AO2
K6I2 161555Z AUTO 36006KT 10SM FEW027 FEW047 13/05 A3035 RMK AO2 P0001
K6I2 161535Z AUTO 01004KT 10SM BKN027 BKN033 13/06 A3034 RMK AO2
K6I2 161515Z AUTO 02005KT 10SM BKN025 14/07 A3034 RMK AO2
K6I2 161455Z AUTO 36006KT 330V030 10SM SCT020 13/07 A3034 RMK AO2
K6I2 161435Z AUTO 36006KT 10SM FEW018 12/07 A3033 RMK AO2
K6I2 161415Z AUTO 34007KT 10SM CLR 12/07 A3033 RMK AO2
K6I2 161355Z AUTO 36006KT 10SM CLR 11/07 A3033 RMK AO2
K6I2 161335Z AUTO 35009KT 10SM CLR 10/07 A3033 RMK AO2
K6I2 161315Z AUTO 35008KT 10SM CLR 10/07 A3032 RMK AO2
K6I2 161255Z AUTO 34006KT 10SM CLR 09/07 A3031 RMK AO2
K6I2 161235Z AUTO 34005KT 10SM CLR 08/06 A3030 RMK AO2
K6I2 161215Z AUTO 34005KT 10SM CLR 08/06 A3030 RMK AO2
K6I2 161155Z AUTO 00000KT 10SM CLR 08/05 A3029 RMK AO2
K6I2 161135Z AUTO 34005KT 10SM CLR 08/06 A3028 RMK AO2
K6I2 161115Z AUTO 33006KT 10SM CLR 09/06 A3028 RMK AO2
K6I2 161055Z AUTO 34005KT 10SM CLR 09/06 A3027 RMK AO2
K6I2 161035Z AUTO 34006KT 10SM CLR 09/06 A3026 RMK AO2
K6I2 161015Z AUTO 00000KT 10SM CLR 10/06 A3026 RMK AO2
K6I2 160955Z AUTO 35005KT 10SM CLR 10/06 A3025 RMK AO2
K6I2 160935Z AUTO 34006KT 10SM CLR 10/06 A3025 RMK AO2
K6I2 160915Z AUTO 33008KT 10SM CLR 10/06 A3025 RMK AO2
K6I2 160855Z AUTO 33008KT 10SM CLR 10/06 A3025 RMK AO2
K6I2 160835Z AUTO 32006KT 10SM CLR 10/05 A3024 RMK AO2
K6I2 160815Z AUTO 33005KT 10SM CLR 10/05 A3025 RMK AO2
K6I2 160755Z AUTO 32006KT 10SM CLR 10/06 A3024 RMK AO2
K6I2 160735Z AUTO 00000KT 10SM CLR 10/06 A3024 RMK AO2
K6I2 160715Z AUTO 00000KT 10SM CLR 10/06 A3024 RMK AO2
K6I2 160655Z AUTO 00000KT 10SM CLR 10/06 A3024 RMK AO2